Felts Field Spokane US
ICAO: KSFF
IATA: SFF
Category: Medium
Scheduled Services: No

Elevation: 1953 ft
TransAlt. 18000 ft.

Airport Communications:
SPOKANE APP/DEP:133.35
ATIS:120.55
CTAF:132.5
GND:121.7
SEATTLE RDO:122.2
TWR:132.5
UNICOM:122.95

KSFF Zoom In..

If you have problems with the map follow the link
https://www.worldairports.se/pages/airport.php?
ICAO=KSFF

Runways:

(A) RW 04L length 4499 ft width 150 ft
---- / hdg 38

(B) RW 04R length 2650 ft width 75 ft
---- / hdg 38

(C) RW 22L length 2650 ft width 75 ft
---- / hdg 218

(D) RW 22R length 4499 ft width 150 ft
ILS 111.70 / hdg 218

Location; KSFF
Day. 25 / Time. 21.53 Zulu
* Altimeter: 30.03
* Temperature: 07° c. 44.6°f.
* Wind from: VRB° Speed 03 kn.
Dewpoint: 04° c.
Visibility: 10 Statute Miles.
Clouds: Few 1500 ft.
Clouds: Scattered 3000 ft.
Clouds: Broken 6000 ft.

KSFF 252153Z VRB03KT 10SM FEW015 SCT030 BKN060 07/04 A3003 RMK AO2 SLP178 T00670044


Wind From VRB°
Speed 03 kn.

 
 
jpsmedia worldairports.se 2020   terms of use